createdAt,value
2018-03-22T00:01:53.887Z,24.12
2018-03-22T00:04:29.085Z,21.58
2018-03-22T00:07:04.395Z,21.40
2018-03-22T00:09:39.977Z,23.48
2018-03-22T00:12:15.330Z,28.05
2018-03-22T00:14:50.602Z,24.92
2018-03-22T00:17:25.859Z,22.83
2018-03-22T00:20:01.155Z,22.60
2018-03-22T00:22:39.335Z,24.13
2018-03-22T00:25:14.563Z,17.33
2018-03-22T00:27:50.537Z,18.90
2018-03-22T00:30:26.110Z,22.00
2018-03-22T00:33:01.283Z,22.67
2018-03-22T00:35:36.500Z,29.12
2018-03-22T00:38:11.647Z,18.15
2018-03-22T00:40:47.041Z,25.15
2018-03-22T00:43:22.237Z,28.17
2018-03-22T00:45:58.335Z,26.90
2018-03-22T00:48:33.477Z,25.20
2018-03-22T00:51:08.829Z,21.20
2018-03-22T00:53:44.081Z,22.62
2018-03-22T00:56:19.421Z,31.20
2018-03-22T00:58:54.562Z,25.88
2018-03-22T01:01:29.984Z,21.75
2018-03-22T01:04:05.183Z,19.87
2018-03-22T01:06:41.561Z,26.10
2018-03-22T01:09:17.550Z,17.67
2018-03-22T01:11:52.987Z,22.90
2018-03-22T01:14:28.306Z,22.75
2018-03-22T01:17:03.649Z,21.87
2018-03-22T01:19:38.918Z,27.23
2018-03-22T01:22:14.127Z,19.98
2018-03-22T01:24:50.111Z,21.62
2018-03-22T01:27:25.354Z,17.33
2018-03-22T01:30:00.773Z,20.70
2018-03-22T01:32:35.942Z,15.60
2018-03-22T01:35:11.167Z,13.85
2018-03-22T01:37:46.743Z,15.07
2018-03-22T01:40:22.691Z,19.23
2018-03-22T01:42:57.869Z,15.30
2018-03-22T01:45:33.088Z,19.55
2018-03-22T01:48:09.137Z,19.98
2018-03-22T01:50:44.473Z,19.23
2018-03-22T01:53:19.833Z,16.80
2018-03-22T01:55:55.547Z,11.32
2018-03-22T01:58:30.819Z,14.23
2018-03-22T02:01:06.129Z,17.20
2018-03-22T02:03:41.316Z,13.55
2018-03-22T02:06:16.640Z,16.25
2018-03-22T02:08:51.949Z,18.40
2018-03-22T02:11:27.266Z,16.92
2018-03-22T02:14:02.567Z,25.90
2018-03-22T02:16:38.118Z,15.60
2018-03-22T02:19:13.379Z,14.23
2018-03-22T02:21:48.844Z,13.38
2018-03-22T02:24:23.995Z,17.65
2018-03-22T02:26:59.978Z,11.05
2018-03-22T02:29:35.942Z,20.65
2018-03-22T02:32:12.101Z,15.77
2018-03-22T02:34:47.444Z,8.00
2018-03-22T02:37:22.932Z,24.87
2018-03-22T02:39:58.186Z,16.35
2018-03-22T02:42:33.735Z,15.52
2018-03-22T02:45:09.018Z,15.27
2018-03-22T02:47:44.343Z,15.50
2018-03-22T02:50:19.704Z,19.52
2018-03-22T02:52:55.161Z,17.40
2018-03-22T02:55:30.276Z,15.73
2018-03-22T02:58:05.630Z,24.08
2018-03-22T03:00:40.903Z,21.70
2018-03-22T03:03:16.271Z,17.40
2018-03-22T03:05:51.527Z,13.70
2018-03-22T03:08:27.505Z,28.48
2018-03-22T03:11:03.505Z,16.52
2018-03-22T03:13:38.847Z,18.87
2018-03-22T03:16:14.600Z,15.43
2018-03-22T03:18:49.715Z,17.73
2018-03-22T03:21:25.044Z,14.98
2018-03-22T03:24:00.367Z,17.73
2018-03-22T03:26:36.338Z,19.48
2018-03-22T03:29:12.296Z,18.50
2018-03-22T03:31:47.750Z,13.05
2018-03-22T03:34:23.058Z,15.65
2018-03-22T03:36:58.340Z,11.98
2018-03-22T03:39:34.334Z,9.70
2018-03-22T03:42:09.778Z,14.05
2018-03-22T03:44:44.958Z,8.93
2018-03-22T03:47:20.336Z,15.85
2018-03-22T03:49:55.640Z,12.80
2018-03-22T03:52:31.128Z,11.52
2018-03-22T03:55:06.477Z,13.23
2018-03-22T03:57:42.490Z,9.25
2018-03-22T04:00:18.443Z,11.93
2018-03-22T04:02:53.891Z,11.55
2018-03-22T04:05:29.298Z,9.27
2018-03-22T04:08:04.573Z,9.98
2018-03-22T04:10:39.788Z,12.77
2018-03-22T04:13:15.129Z,14.77
2018-03-22T04:15:51.094Z,12.98
2018-03-22T04:18:26.403Z,12.20
2018-03-22T04:21:01.983Z,9.52
2018-03-22T04:23:37.428Z,8.02
2018-03-22T04:26:12.616Z,11.60
2018-03-22T04:28:47.856Z,8.35
2018-03-22T04:31:23.177Z,10.82
2018-03-22T04:33:59.107Z,16.95
2018-03-22T04:36:35.144Z,10.88
2018-03-22T04:39:10.413Z,11.52
2018-03-22T04:41:45.780Z,11.60
2018-03-22T04:44:21.000Z,12.55
2018-03-22T04:46:56.153Z,8.32
2018-03-22T04:49:31.309Z,10.85
2018-03-22T04:52:06.506Z,7.18
2018-03-22T04:54:42.397Z,15.13
2018-03-22T04:57:18.314Z,10.85
2018-03-22T04:59:53.527Z,6.95
2018-03-22T05:02:29.590Z,7.53
2018-03-22T05:05:05.589Z,9.13
2018-03-22T05:07:41.044Z,11.70
2018-03-22T05:10:16.198Z,11.85
2018-03-22T05:12:51.553Z,12.98
2018-03-22T05:15:27.613Z,12.77
2018-03-22T05:18:02.801Z,13.30
2018-03-22T05:20:37.981Z,13.15
2018-03-22T05:23:13.578Z,13.48
2018-03-22T05:25:49.930Z,10.65
2018-03-22T05:28:37.997Z,13.77
2018-03-22T05:31:14.376Z,12.70
2018-03-22T05:33:50.897Z,12.40
2018-03-22T05:36:28.674Z,16.83
2018-03-22T05:39:07.389Z,11.52
2018-03-22T05:41:42.632Z,27.13
2018-03-22T05:44:17.874Z,13.40
2018-03-22T05:46:53.216Z,12.80
2018-03-22T05:49:37.723Z,14.70
2018-03-22T05:52:13.066Z,10.13
2018-03-22T05:54:48.567Z,13.55
2018-03-22T05:57:24.558Z,15.82
2018-03-22T06:00:00.541Z,10.15
2018-03-22T06:02:35.972Z,11.20
2018-03-22T06:05:12.058Z,16.77
2018-03-22T06:07:48.322Z,12.65
2018-03-22T06:10:23.675Z,11.05
2018-03-22T06:12:58.976Z,14.02
2018-03-22T06:15:34.298Z,12.82
2018-03-22T06:18:09.631Z,11.35
2018-03-22T06:20:45.013Z,13.30
2018-03-22T06:23:20.255Z,13.25
2018-03-22T06:25:56.226Z,10.77
2018-03-22T06:28:32.503Z,11.27
2018-03-22T06:31:07.715Z,13.35
2018-03-22T06:33:43.062Z,13.40
2018-03-22T06:36:18.351Z,12.32
2018-03-22T06:38:54.281Z,11.00
2018-03-22T06:41:29.559Z,10.50
2018-03-22T06:44:05.152Z,12.30
2018-03-22T06:46:40.365Z,11.30
2018-03-22T06:49:15.640Z,12.15
2018-03-22T06:51:50.886Z,13.02
2018-03-22T06:54:26.147Z,10.18
2018-03-22T06:57:01.436Z,9.45
2018-03-22T06:59:36.771Z,8.38
2018-03-22T07:02:11.920Z,11.32
2018-03-22T07:04:47.019Z,6.10
2018-03-22T07:07:22.945Z,9.25
2018-03-22T07:09:58.277Z,9.90
2018-03-22T07:12:33.651Z,9.98
2018-03-22T07:15:09.027Z,11.05
2018-03-22T07:17:44.962Z,6.18
2018-03-22T07:20:21.133Z,19.95
2018-03-22T07:22:56.988Z,8.30
2018-03-22T07:25:33.214Z,7.18
2018-03-22T07:28:08.541Z,10.50
2018-03-22T07:30:43.751Z,10.65
2018-03-22T07:33:19.441Z,7.67
2018-03-22T07:35:54.719Z,10.68
2018-03-22T07:38:30.113Z,8.15
2018-03-22T07:41:05.378Z,7.87
2018-03-22T07:43:43.776Z,12.95
2018-03-22T07:46:19.102Z,8.90
2018-03-22T07:48:54.353Z,9.50
2018-03-22T07:51:29.838Z,8.98
2018-03-22T07:54:05.133Z,7.87
2018-03-22T07:56:41.168Z,8.02
2018-03-22T07:59:16.485Z,10.52
2018-03-22T08:01:51.802Z,8.98
2018-03-22T08:04:26.958Z,8.52
2018-03-22T08:07:02.166Z,9.40
2018-03-22T08:09:37.460Z,10.40
2018-03-22T08:12:12.817Z,7.85
2018-03-22T08:14:48.069Z,10.43
2018-03-22T08:17:23.684Z,10.48
2018-03-22T08:19:59.033Z,8.50
2018-03-22T08:22:34.674Z,10.73
2018-03-22T08:25:10.003Z,7.22
2018-03-22T08:27:45.818Z,20.83
2018-03-22T08:30:20.951Z,9.75
2018-03-22T08:32:56.127Z,12.90
2018-03-22T08:35:31.354Z,8.60
2018-03-22T08:38:06.707Z,5.72
2018-03-22T08:40:41.969Z,7.20
2018-03-22T08:43:17.287Z,8.55
2018-03-22T08:45:52.594Z,13.30
2018-03-22T08:48:27.866Z,9.40
2018-03-22T08:51:03.203Z,12.57
2018-03-22T08:53:38.883Z,17.83
2018-03-22T08:56:14.239Z,11.68
2018-03-22T08:58:49.665Z,6.12
2018-03-22T09:01:24.837Z,9.95
2018-03-22T09:04:00.870Z,12.32
2018-03-22T09:06:36.250Z,19.80
2018-03-22T09:09:11.648Z,17.62
2018-03-22T09:11:47.568Z,7.75
2018-03-22T09:14:22.833Z,10.55
2018-03-22T09:16:57.969Z,10.98
2018-03-22T09:19:34.360Z,11.95
2018-03-22T09:22:10.339Z,10.57
2018-03-22T09:24:46.352Z,10.30
2018-03-22T09:27:22.199Z,17.65
2018-03-22T09:29:57.496Z,10.52
2018-03-22T09:32:32.846Z,17.85
2018-03-22T09:35:08.039Z,7.45
2018-03-22T09:37:43.477Z,14.05
2018-03-22T09:40:19.177Z,16.08
2018-03-22T09:42:54.830Z,16.58
2018-03-22T09:45:30.175Z,27.52
2018-03-22T09:48:06.369Z,12.88
2018-03-22T09:50:42.329Z,10.45
2018-03-22T09:53:17.591Z,16.42
2018-03-22T09:55:52.752Z,10.43
2018-03-22T09:58:28.097Z,13.18
2018-03-22T10:01:03.390Z,9.43
2018-03-22T10:03:38.534Z,20.00
2018-03-22T10:06:13.930Z,14.02
2018-03-22T10:08:50.245Z,16.50
2018-03-22T10:11:25.341Z,14.38
2018-03-22T10:14:00.653Z,19.73
2018-03-22T10:16:35.975Z,17.90
2018-03-22T10:19:11.546Z,21.62
2018-03-22T10:21:46.901Z,19.20
2018-03-22T10:24:22.150Z,23.50
2018-03-22T10:26:57.422Z,19.48
2018-03-22T10:29:32.602Z,21.85
2018-03-22T10:32:07.932Z,14.25
2018-03-22T10:34:43.059Z,22.27
2018-03-22T10:37:18.450Z,22.83
2018-03-22T10:39:54.486Z,19.60
2018-03-22T10:42:29.754Z,28.67
2018-03-22T10:45:05.223Z,22.87
2018-03-22T10:47:40.594Z,23.42
2018-03-22T10:50:15.858Z,23.70
2018-03-22T10:52:51.497Z,22.40
2018-03-22T10:55:26.822Z,19.00
2018-03-22T10:58:02.387Z,26.80
2018-03-22T11:00:38.438Z,25.23
2018-03-22T11:03:19.811Z,20.05
2018-03-22T11:05:55.117Z,24.95
2018-03-22T11:08:30.477Z,22.60
2018-03-22T11:11:05.790Z,25.98
2018-03-22T11:13:42.014Z,21.83
2018-03-22T11:16:17.449Z,23.77
2018-03-22T11:18:52.951Z,26.67
2018-03-22T11:21:28.762Z,15.90
2018-03-22T11:24:04.469Z,20.08
2018-03-22T11:26:39.732Z,20.70
2018-03-22T11:29:15.720Z,21.60
2018-03-22T11:31:51.719Z,19.50
2018-03-22T11:34:27.618Z,25.75
2018-03-22T11:37:03.652Z,25.70
2018-03-22T11:39:39.014Z,28.02
2018-03-22T11:42:14.275Z,21.55
2018-03-22T11:44:49.756Z,24.20
2018-03-22T11:47:25.012Z,31.20
2018-03-22T11:50:00.350Z,26.05
2018-03-22T11:52:35.878Z,22.25
2018-03-22T11:55:11.973Z,23.58
2018-03-22T11:57:47.218Z,23.50
2018-03-22T12:00:23.024Z,28.38
2018-03-22T12:02:59.488Z,29.08
2018-03-22T12:05:34.687Z,29.23
2018-03-22T12:08:09.989Z,22.15
2018-03-22T12:10:45.252Z,32.65
2018-03-22T12:13:20.388Z,31.85
2018-03-22T12:15:55.920Z,37.92
2018-03-22T12:18:32.055Z,24.55
2018-03-22T12:21:07.779Z,26.42
2018-03-22T12:23:43.161Z,28.12
2018-03-22T12:26:18.349Z,30.63
2018-03-22T12:28:54.272Z,26.62
2018-03-22T12:31:30.189Z,21.55
2018-03-22T12:34:05.379Z,34.08
2018-03-22T12:36:41.062Z,17.15
2018-03-22T12:39:16.241Z,34.17
2018-03-22T12:41:51.688Z,35.17
2018-03-22T12:44:26.950Z,32.85
2018-03-22T12:47:02.487Z,28.25
2018-03-22T12:49:37.816Z,31.60
2018-03-22T12:52:12.992Z,33.58
2018-03-22T12:54:48.187Z,33.42
2018-03-22T12:57:23.551Z,32.33
2018-03-22T12:59:58.667Z,24.83
2018-03-22T13:02:33.865Z,28.77
2018-03-22T13:05:09.198Z,31.42
2018-03-22T13:07:44.808Z,32.75
2018-03-22T13:10:19.953Z,30.07
2018-03-22T13:12:55.288Z,32.90
2018-03-22T13:15:31.202Z,29.30
2018-03-22T13:18:06.474Z,31.37
2018-03-22T13:20:42.535Z,32.58
2018-03-22T13:23:17.765Z,28.90
2018-03-22T13:25:53.154Z,29.60
2018-03-22T13:28:28.734Z,28.83
2018-03-22T13:31:03.836Z,23.50
2018-03-22T13:33:39.860Z,33.83
2018-03-22T13:36:15.855Z,26.50
2018-03-22T13:38:51.147Z,24.40
2018-03-22T13:41:26.371Z,23.38
2018-03-22T13:44:01.788Z,24.83
2018-03-22T13:46:37.736Z,25.27
2018-03-22T13:49:13.728Z,31.50
2018-03-22T13:51:49.033Z,24.52
2018-03-22T13:54:24.242Z,18.50
2018-03-22T13:56:59.685Z,20.57
2018-03-22T13:59:34.909Z,23.75
2018-03-22T14:02:10.267Z,25.12
2018-03-22T14:04:45.442Z,21.42
2018-03-22T14:07:20.698Z,23.23
2018-03-22T14:09:55.842Z,21.70
2018-03-22T14:12:31.133Z,23.17
2018-03-22T14:15:06.466Z,19.87
2018-03-22T14:17:42.430Z,20.60
2018-03-22T14:20:18.398Z,23.63
2018-03-22T14:22:53.636Z,28.73
2018-03-22T14:25:28.832Z,18.87
2018-03-22T14:28:04.731Z,19.60
2018-03-22T14:30:40.014Z,23.93
2018-03-22T14:33:16.004Z,21.80
2018-03-22T14:35:51.257Z,22.67
2018-03-22T14:38:26.602Z,20.13
2018-03-22T14:41:02.536Z,19.63
2018-03-22T14:43:37.716Z,16.93
2018-03-22T14:46:12.875Z,22.40
2018-03-22T14:48:48.034Z,23.55
2018-03-22T14:51:23.453Z,42.80
2018-03-22T14:53:58.595Z,23.80
2018-03-22T14:56:34.867Z,25.33
2018-03-22T14:59:10.217Z,24.47
2018-03-22T15:01:46.497Z,19.97
2018-03-22T15:04:22.700Z,28.67
2018-03-22T15:06:59.415Z,18.07
2018-03-22T15:09:34.666Z,23.50
2018-03-22T15:12:09.884Z,23.43
2018-03-22T15:14:45.062Z,22.03
2018-03-22T15:17:20.510Z,22.73
2018-03-22T15:19:55.891Z,22.57
2018-03-22T15:22:31.139Z,24.33
2018-03-22T15:25:06.266Z,21.37
2018-03-22T15:27:41.709Z,21.27
2018-03-22T15:30:17.048Z,20.60
2018-03-22T15:32:52.943Z,23.63
2018-03-22T15:35:29.284Z,17.17
2018-03-22T15:38:05.411Z,19.90
2018-03-22T15:40:41.182Z,20.67
2018-03-22T15:43:16.486Z,22.13
2018-03-22T15:45:51.796Z,20.73
2018-03-22T15:48:27.945Z,20.23
2018-03-22T15:51:03.224Z,18.40
2018-03-22T15:53:39.263Z,31.13
2018-03-22T15:56:14.474Z,18.10
2018-03-22T15:58:50.425Z,15.53
2018-03-22T16:01:25.866Z,17.20
2018-03-22T16:04:01.268Z,22.53
2018-03-22T16:06:37.159Z,15.87
2018-03-22T16:09:14.474Z,18.47
2018-03-22T16:11:49.861Z,17.27
2018-03-22T16:14:25.522Z,19.03
2018-03-22T16:17:00.809Z,16.97
2018-03-22T16:19:36.094Z,14.70
2018-03-22T16:22:13.340Z,15.93
2018-03-22T16:24:48.515Z,14.50
2018-03-22T16:27:23.784Z,16.30
2018-03-22T16:29:59.066Z,12.07
2018-03-22T16:32:34.489Z,14.67
2018-03-22T16:35:10.572Z,13.63
2018-03-22T16:37:46.652Z,11.73
2018-03-22T16:40:21.889Z,15.73
2018-03-22T16:42:57.369Z,16.37
2018-03-22T16:45:33.319Z,15.20
2018-03-22T16:48:08.773Z,14.43
2018-03-22T16:50:44.514Z,13.37
2018-03-22T16:53:19.782Z,19.17
2018-03-22T16:55:55.382Z,16.13
2018-03-22T16:58:30.527Z,15.17
2018-03-22T17:01:06.369Z,16.33
2018-03-22T17:03:41.826Z,12.87
2018-03-22T17:06:16.984Z,14.87
2018-03-22T17:08:52.904Z,17.20
2018-03-22T17:11:28.100Z,13.33
2018-03-22T17:14:04.433Z,15.00
2018-03-22T17:16:39.672Z,12.37
2018-03-22T17:19:14.975Z,16.00
2018-03-22T17:21:50.144Z,16.40
2018-03-22T17:24:25.500Z,13.27
2018-03-22T17:27:00.863Z,12.30
2018-03-22T17:29:36.085Z,11.97
2018-03-22T17:32:11.463Z,13.07
2018-03-22T17:34:46.728Z,20.00
2018-03-22T17:37:21.892Z,15.43
2018-03-22T17:39:57.227Z,10.47
2018-03-22T17:42:32.371Z,11.13
2018-03-22T17:45:08.240Z,14.03
2018-03-22T17:47:43.684Z,11.90
2018-03-22T17:50:18.918Z,17.87
2018-03-22T17:52:54.288Z,14.67
2018-03-22T17:55:29.665Z,15.30
2018-03-22T17:58:04.936Z,15.33
2018-03-22T18:00:40.324Z,16.30
2018-03-22T18:03:15.484Z,12.53
2018-03-22T18:05:50.581Z,11.83
2018-03-22T18:08:26.588Z,14.63
2018-03-22T18:11:02.062Z,16.30
2018-03-22T18:13:37.186Z,14.37
2018-03-22T18:16:12.569Z,14.73
2018-03-22T18:18:47.885Z,17.87
2018-03-22T18:21:24.038Z,16.50
2018-03-22T18:24:00.473Z,14.17
2018-03-22T18:26:36.550Z,15.60
2018-03-22T18:29:11.820Z,11.70
2018-03-22T18:31:47.349Z,19.00
2018-03-22T18:34:23.392Z,13.63
2018-03-22T18:36:58.552Z,11.83
2018-03-22T18:39:34.282Z,19.70
2018-03-22T18:42:10.375Z,13.57
2018-03-22T18:44:46.367Z,12.83
2018-03-22T18:47:22.325Z,14.13
2018-03-22T18:49:57.467Z,12.68
2018-03-22T18:52:32.770Z,16.13
2018-03-22T18:55:08.721Z,11.37
2018-03-22T18:57:44.131Z,14.90
2018-03-22T19:00:19.622Z,16.37
2018-03-22T19:02:54.762Z,14.07
2018-03-22T19:05:30.159Z,19.57
2018-03-22T19:08:05.680Z,16.60
2018-03-22T19:10:40.978Z,14.03
2018-03-22T19:13:16.489Z,15.57
2018-03-22T19:15:51.623Z,13.60
2018-03-22T19:18:27.082Z,14.90
2018-03-22T19:21:02.510Z,15.60
2018-03-22T19:23:38.720Z,17.40
2018-03-22T19:26:14.168Z,16.30
2018-03-22T19:28:49.671Z,11.40
2018-03-22T19:31:25.610Z,11.97
2018-03-22T19:34:01.782Z,14.60
2018-03-22T19:36:37.027Z,15.00
2018-03-22T19:39:12.668Z,14.47
2018-03-22T19:41:48.573Z,15.57
2018-03-22T19:44:24.784Z,14.87
2018-03-22T19:47:00.845Z,10.30
2018-03-22T19:49:36.180Z,13.90
2018-03-22T19:52:11.525Z,12.50
2018-03-22T19:54:46.997Z,15.90
2018-03-22T19:57:22.131Z,15.10
2018-03-22T19:59:58.024Z,16.40
2018-03-22T20:02:33.878Z,21.17
2018-03-22T20:05:09.975Z,14.67
2018-03-22T20:07:45.315Z,15.27
2018-03-22T20:10:20.491Z,14.87
2018-03-22T20:12:55.831Z,17.30
2018-03-22T20:15:31.117Z,16.20
2018-03-22T20:18:06.441Z,17.40
2018-03-22T20:20:41.743Z,21.87
2018-03-22T20:23:17.127Z,18.47
2018-03-22T20:25:53.071Z,17.03
2018-03-22T20:28:28.562Z,17.00
2018-03-22T20:31:04.531Z,17.63
2018-03-22T20:33:40.725Z,20.00
2018-03-22T20:36:16.007Z,12.70
2018-03-22T20:38:51.116Z,20.50
2018-03-22T20:41:26.435Z,18.67
2018-03-22T20:44:02.739Z,15.60
2018-03-22T20:46:37.902Z,19.93
2018-03-22T20:49:13.452Z,18.97
2018-03-22T20:51:48.712Z,16.20
2018-03-22T20:54:24.300Z,17.80
2018-03-22T20:56:59.617Z,18.23
2018-03-22T20:59:35.016Z,20.30
2018-03-22T21:02:10.971Z,20.00
2018-03-22T21:04:46.935Z,18.90
2018-03-22T21:07:22.359Z,16.83
2018-03-22T21:09:58.344Z,19.57
2018-03-22T21:12:33.482Z,18.70
2018-03-22T21:15:09.342Z,18.03
2018-03-22T21:17:45.316Z,17.40
2018-03-22T21:20:20.706Z,18.90
2018-03-22T21:22:56.849Z,22.83
2018-03-22T21:25:32.216Z,20.37
2018-03-22T21:28:08.288Z,26.07
2018-03-22T21:30:43.635Z,19.80
2018-03-22T21:33:19.628Z,20.77
2018-03-22T21:35:54.879Z,21.30
2018-03-22T21:38:30.223Z,22.93
2018-03-22T21:41:05.552Z,18.47
2018-03-22T21:46:51.902Z,22.20
2018-03-22T21:49:27.385Z,25.40
2018-03-22T21:52:20.364Z,20.20
2018-03-22T21:54:55.506Z,18.90
2018-03-22T21:57:31.566Z,21.80
2018-03-22T22:00:07.750Z,21.40
2018-03-22T22:02:43.582Z,17.77
2018-03-22T22:05:19.345Z,21.00
2018-03-22T22:07:55.351Z,25.63
2018-03-22T22:10:30.555Z,22.80
2018-03-22T22:13:05.840Z,22.93
2018-03-22T22:15:42.019Z,20.47
2018-03-22T22:18:17.296Z,24.30
2018-03-22T22:20:53.888Z,23.33
2018-03-22T22:23:29.218Z,21.93
2018-03-22T22:26:04.527Z,24.13
2018-03-22T22:28:40.224Z,22.80
2018-03-22T22:31:15.586Z,27.30
2018-03-22T22:33:50.795Z,27.63
2018-03-22T22:36:25.880Z,29.43
2018-03-22T22:39:01.907Z,26.27
2018-03-22T22:41:37.861Z,25.87
2018-03-22T22:44:13.202Z,30.00
2018-03-22T22:46:48.295Z,27.57
2018-03-22T22:49:23.487Z,23.20
2018-03-22T22:51:58.848Z,26.87
2018-03-22T22:54:34.007Z,25.30
2018-03-22T22:57:09.355Z,26.27
2018-03-22T22:59:45.099Z,26.30
2018-03-22T23:02:20.339Z,27.40
2018-03-22T23:04:56.263Z,25.50
2018-03-22T23:07:31.426Z,22.60
2018-03-22T23:10:06.737Z,26.53
2018-03-22T23:12:42.112Z,28.57
2018-03-22T23:15:17.604Z,25.00
2018-03-22T23:17:52.692Z,32.53
2018-03-22T23:20:28.006Z,35.10
2018-03-22T23:23:03.297Z,26.37
2018-03-22T23:25:38.585Z,24.23
2018-03-22T23:28:14.735Z,26.80
2018-03-22T23:30:50.333Z,34.40
2018-03-22T23:33:25.802Z,30.83
2018-03-22T23:36:00.964Z,35.87
2018-03-22T23:38:37.297Z,28.17
2018-03-22T23:41:12.456Z,29.30
2018-03-22T23:43:48.350Z,26.97
2018-03-22T23:46:23.545Z,30.90
2018-03-22T23:48:59.035Z,30.17
2018-03-22T23:51:34.378Z,25.37
2018-03-22T23:54:09.793Z,28.03
2018-03-22T23:56:45.115Z,29.90
2018-03-22T23:59:20.403Z,31.60
